createdAt,value
2023-01-20T00:00:46.457Z,99801.81
2023-01-20T00:05:39.470Z,99789.88
2023-01-20T00:10:32.540Z,99785.25
2023-01-20T00:15:26.412Z,99803.44
2023-01-20T00:20:19.691Z,99841.63
2023-01-20T00:25:13.021Z,99816.16
2023-01-20T00:30:07.920Z,99819.66
2023-01-20T00:35:00.575Z,99809.00
2023-01-20T00:39:54.298Z,99831.41
2023-01-20T00:44:48.085Z,99854.38
2023-01-20T00:49:42.193Z,99829.72
2023-01-20T00:54:35.984Z,99844.44
2023-01-20T00:59:29.644Z,99842.94
2023-01-20T01:04:23.688Z,99874.78
2023-01-20T01:09:16.973Z,99820.25
2023-01-20T01:14:10.999Z,99871.41
2023-01-20T01:19:04.760Z,99866.22
2023-01-20T01:23:58.131Z,99842.66
2023-01-20T01:28:51.207Z,99860.53
2023-01-20T01:33:44.364Z,99868.13
2023-01-20T01:38:38.324Z,99870.66
2023-01-20T01:43:35.054Z,99862.44
2023-01-20T01:48:36.285Z,99890.88
2023-01-20T01:53:34.569Z,99862.44
2023-01-20T01:58:33.449Z,99875.13
2023-01-20T02:03:34.327Z,99876.19
2023-01-20T02:08:29.107Z,99871.72
2023-01-20T02:13:22.943Z,99869.81
2023-01-20T02:18:31.285Z,99873.56
2023-01-20T02:23:42.278Z,99864.66
2023-01-20T02:29:10.408Z,99855.03
2023-01-20T02:34:35.515Z,99831.63
2023-01-20T02:39:44.608Z,99819.66
2023-01-20T02:44:52.613Z,99816.94
2023-01-20T02:50:14.333Z,99828.75
2023-01-20T02:55:11.283Z,99790.72
2023-01-20T03:00:21.429Z,99802.34
2023-01-20T03:05:21.905Z,99820.94
2023-01-20T03:10:20.940Z,99828.75
2023-01-20T03:15:15.223Z,99801.47
2023-01-20T03:20:10.967Z,99829.63
2023-01-20T03:25:04.615Z,99819.38
2023-01-20T03:29:58.889Z,99827.94
2023-01-20T03:34:52.601Z,99827.06
2023-01-20T03:39:45.551Z,99826.25
2023-01-20T03:44:47.592Z,99827.31
2023-01-20T03:50:05.708Z,99803.16
2023-01-20T03:55:05.009Z,99778.84
2023-01-20T03:59:59.750Z,99767.94
2023-01-20T04:04:55.264Z,99788.25
2023-01-20T04:09:52.913Z,99806.22
2023-01-20T04:14:50.541Z,99803.91
2023-01-20T04:19:43.540Z,99782.25
2023-01-20T04:24:36.783Z,99814.78
2023-01-20T04:29:30.113Z,99792.81
2023-01-20T04:34:23.594Z,99797.88
2023-01-20T04:39:17.519Z,99825.50
2023-01-20T04:44:10.604Z,99779.56
2023-01-20T04:49:04.415Z,99803.94
2023-01-20T04:53:59.145Z,99846.88
2023-01-20T04:58:53.357Z,99845.09
2023-01-20T05:03:47.331Z,99844.47
2023-01-20T05:08:40.708Z,99861.91
2023-01-20T05:13:38.942Z,99820.19
2023-01-20T05:18:33.495Z,99859.28
2023-01-20T05:23:27.261Z,99849.56
2023-01-20T05:28:21.230Z,99861.09
2023-01-20T05:33:15.246Z,99894.50
2023-01-20T05:38:08.911Z,99867.31
2023-01-20T05:43:02.658Z,99891.03
2023-01-20T05:47:58.539Z,99877.69
2023-01-20T05:52:51.819Z,99905.22
2023-01-20T05:57:45.580Z,99902.69
2023-01-20T06:02:39.585Z,99892.00
2023-01-20T06:07:33.228Z,99903.63
2023-01-20T06:12:26.833Z,99922.16
2023-01-20T06:17:19.737Z,99930.28
2023-01-20T06:22:35.050Z,99912.41
2023-01-20T06:27:28.324Z,99916.94
2023-01-20T06:32:21.925Z,99924.25
2023-01-20T06:37:14.954Z,99913.78
2023-01-20T06:42:08.291Z,99911.34
2023-01-20T06:47:01.887Z,99915.78
2023-01-20T06:51:55.021Z,99941.00
2023-01-20T06:56:49.235Z,99904.38
2023-01-20T07:01:42.929Z,99940.34
2023-01-20T07:06:39.099Z,99950.31
2023-01-20T07:11:32.536Z,99927.66
2023-01-20T07:16:26.893Z,99953.34
2023-01-20T07:21:20.856Z,99945.22
2023-01-20T07:26:18.889Z,99936.66
2023-01-20T07:31:15.079Z,99969.34
2023-01-20T07:36:09.795Z,99944.78
2023-01-20T07:41:05.435Z,99959.91
2023-01-20T07:46:03.631Z,99956.13
2023-01-20T07:51:05.896Z,99964.16
2023-01-20T07:56:02.594Z,99993.28
2023-01-20T08:00:55.603Z,99992.41
2023-01-20T08:05:49.123Z,100009.25
2023-01-20T08:10:42.386Z,100020.78
2023-01-20T08:15:35.824Z,100008.31
2023-01-20T08:20:29.537Z,99986.38
2023-01-20T08:25:23.532Z,100015.50
2023-01-20T08:30:17.360Z,100039.41
2023-01-20T08:35:09.750Z,100007.53
2023-01-20T08:40:04.529Z,100031.59
2023-01-20T08:45:02.984Z,100020.09
2023-01-20T08:49:57.298Z,100040.47
2023-01-20T08:54:53.802Z,100047.56
2023-01-20T08:59:47.743Z,100042.13
2023-01-20T09:04:45.810Z,100018.19
2023-01-20T09:09:39.980Z,100059.94
2023-01-20T09:14:33.704Z,100049.13
2023-01-20T09:19:27.006Z,100069.69
2023-01-20T09:24:21.162Z,100037.66
2023-01-20T09:29:18.281Z,100088.22
2023-01-20T09:34:15.283Z,100065.94
2023-01-20T09:39:27.902Z,100088.22
2023-01-20T09:44:50.975Z,100102.28
2023-01-20T09:50:39.676Z,100101.53
2023-01-20T09:55:32.841Z,100102.47
2023-01-20T10:00:32.127Z,100088.06
2023-01-20T10:05:34.722Z,100068.97
2023-01-20T10:10:36.497Z,100099.84
2023-01-20T10:15:36.343Z,100064.75
2023-01-20T10:20:49.315Z,100074.16
2023-01-20T10:25:54.276Z,100090.44
2023-01-20T10:30:48.726Z,100069.94
2023-01-20T10:35:47.286Z,100078.63
2023-01-20T10:41:20.375Z,100091.91
2023-01-20T10:46:53.221Z,100090.31
2023-01-20T10:52:29.061Z,100086.84
2023-01-20T10:57:22.771Z,100099.31
2023-01-20T11:02:23.658Z,100084.66
2023-01-20T11:07:18.478Z,100088.50
2023-01-20T11:12:17.325Z,100060.91
2023-01-20T11:17:16.310Z,100089.56
2023-01-20T11:22:15.825Z,100080.88
2023-01-20T11:27:15.562Z,100087.88
2023-01-20T11:32:25.335Z,100060.50
2023-01-20T11:37:21.966Z,100071.16
2023-01-20T11:42:25.221Z,100069.34
2023-01-20T11:47:34.947Z,100067.09
2023-01-20T11:52:28.764Z,100074.63
2023-01-20T11:57:23.023Z,100071.25
2023-01-20T12:02:15.873Z,100067.72
2023-01-20T12:07:22.123Z,100020.91
2023-01-20T12:12:41.510Z,100037.75
2023-01-20T12:17:37.699Z,100054.91
2023-01-20T12:22:36.044Z,100072.84
2023-01-20T12:27:29.471Z,100024.56
2023-01-20T12:32:22.201Z,100044.03
2023-01-20T12:37:32.557Z,100033.19
2023-01-20T12:42:25.367Z,100057.63
2023-01-20T12:47:59.512Z,100053.66
2023-01-20T12:53:28.357Z,100049.72
2023-01-20T12:58:27.249Z,100048.50
2023-01-20T13:03:50.184Z,100059.72
2023-01-20T13:08:52.173Z,100048.69
2023-01-20T13:13:56.886Z,100067.84
2023-01-20T13:19:20.213Z,100047.50
2023-01-20T13:24:30.060Z,100036.22
2023-01-20T13:29:52.121Z,100048.84
2023-01-20T13:34:45.776Z,100043.03
2023-01-20T13:39:49.417Z,100073.56
2023-01-20T13:44:57.241Z,100041.66
2023-01-20T13:49:52.222Z,100057.38
2023-01-20T13:54:47.474Z,100020.13
2023-01-20T13:59:41.512Z,100074.94
2023-01-20T14:04:35.067Z,100077.09
2023-01-20T14:09:33.097Z,100063.19
2023-01-20T14:14:27.863Z,100055.53
2023-01-20T14:19:33.565Z,100069.78
2023-01-20T14:25:00.971Z,100075.06
2023-01-20T14:29:55.788Z,100058.84
2023-01-20T14:34:49.063Z,100074.38
2023-01-20T14:39:42.996Z,100062.63
2023-01-20T14:44:36.529Z,100083.72
2023-01-20T14:49:35.724Z,100066.56
2023-01-20T14:54:42.376Z,100092.16
2023-01-20T14:59:36.256Z,100080.75
2023-01-20T15:04:37.671Z,100100.56
2023-01-20T15:09:33.736Z,100073.78
2023-01-20T15:14:33.349Z,100092.22
2023-01-20T15:19:33.476Z,100075.38
2023-01-20T15:24:35.930Z,100086.78
2023-01-20T15:29:34.018Z,100112.25
2023-01-20T15:34:28.618Z,100123.47
2023-01-20T15:39:24.234Z,100109.19
2023-01-20T15:44:18.475Z,100081.88
2023-01-20T15:49:12.292Z,100092.34
2023-01-20T15:54:08.176Z,100116.13
2023-01-20T15:59:01.056Z,100121.28
2023-01-20T16:03:58.160Z,100111.41
2023-01-20T16:08:52.111Z,100098.19
2023-01-20T16:13:46.775Z,100121.59
2023-01-20T16:18:39.756Z,100109.13
2023-01-20T16:23:33.664Z,100124.41
2023-01-20T16:28:26.666Z,100108.47
2023-01-20T16:33:27.570Z,100103.19
2023-01-20T16:38:23.848Z,100116.75
2023-01-20T16:43:18.534Z,100117.72
2023-01-20T16:48:13.433Z,100097.03
2023-01-20T16:53:07.178Z,100132.88
2023-01-20T16:58:00.811Z,100146.19
2023-01-20T17:02:53.548Z,100149.59
2023-01-20T17:07:46.855Z,100132.91
2023-01-20T17:12:39.895Z,100177.75
2023-01-20T17:17:33.848Z,100145.53
2023-01-20T17:22:27.705Z,100165.28
2023-01-20T17:27:25.222Z,100176.28
2023-01-20T17:32:19.512Z,100174.31
2023-01-20T17:37:14.571Z,100174.50
2023-01-20T17:42:08.559Z,100175.16
2023-01-20T17:47:01.851Z,100185.84
2023-01-20T17:51:55.146Z,100166.28
2023-01-20T17:56:49.355Z,100167.25
2023-01-20T18:01:44.911Z,100185.75
2023-01-20T18:06:38.376Z,100184.22
2023-01-20T18:11:33.876Z,100188.38
2023-01-20T18:16:32.191Z,100174.88
2023-01-20T18:21:30.604Z,100181.50
2023-01-20T18:26:26.082Z,100162.41
2023-01-20T18:31:21.930Z,100184.63
2023-01-20T18:36:26.474Z,100184.50
2023-01-20T18:41:20.448Z,100181.69
2023-01-20T18:46:13.626Z,100166.00
2023-01-20T18:51:07.499Z,100188.94
2023-01-20T18:56:06.222Z,100177.53
2023-01-20T19:01:07.656Z,100214.53
2023-01-20T19:06:26.092Z,100223.19
2023-01-20T19:11:42.043Z,100211.59
2023-01-20T19:16:39.845Z,100216.19
2023-01-20T19:21:33.704Z,100211.19
2023-01-20T19:26:28.264Z,100228.28
2023-01-20T19:31:21.381Z,100190.38
2023-01-20T19:36:18.222Z,100219.16
2023-01-20T19:41:13.073Z,100235.88
2023-01-20T19:46:08.645Z,100241.63
2023-01-20T19:51:14.647Z,100247.38
2023-01-20T19:56:17.162Z,100227.69
2023-01-20T20:01:15.974Z,100259.47
2023-01-20T20:06:21.726Z,100263.47
2023-01-20T20:11:15.862Z,100233.06
2023-01-20T20:16:09.876Z,100279.88
2023-01-20T20:21:04.211Z,100269.69
2023-01-20T20:25:57.274Z,100289.34
2023-01-20T20:30:51.892Z,100266.47
2023-01-20T20:35:45.756Z,100257.41
2023-01-20T20:40:38.848Z,100296.69
2023-01-20T20:45:32.378Z,100293.31
2023-01-20T20:50:26.376Z,100269.22
2023-01-20T20:55:20.651Z,100257.41
2023-01-20T21:00:16.492Z,100278.66
2023-01-20T21:05:11.048Z,100298.69
2023-01-20T21:10:05.749Z,100303.97
2023-01-20T21:14:59.700Z,100285.94
2023-01-20T21:19:53.167Z,100311.91
2023-01-20T21:24:47.024Z,100297.34
2023-01-20T21:29:43.982Z,100316.16
2023-01-20T21:34:36.901Z,100316.91
2023-01-20T21:39:30.383Z,100300.00
2023-01-20T21:44:29.271Z,100302.63
2023-01-20T21:49:40.842Z,100323.16
2023-01-20T21:54:35.566Z,100324.63
2023-01-20T21:59:28.872Z,100336.19
2023-01-20T22:04:23.015Z,100326.44
2023-01-20T22:09:15.895Z,100333.34
2023-01-20T22:14:10.293Z,100319.09
2023-01-20T22:19:03.700Z,100342.03
2023-01-20T22:23:57.171Z,100337.69
2023-01-20T22:28:50.828Z,100282.72
2023-01-20T22:33:44.724Z,100302.34
2023-01-20T22:38:37.500Z,100331.56
2023-01-20T22:43:31.338Z,100322.56
2023-01-20T22:48:24.802Z,100307.28
2023-01-20T22:53:18.324Z,100320.69
2023-01-20T22:58:13.265Z,100302.00
2023-01-20T23:03:12.953Z,100320.88
2023-01-20T23:08:06.899Z,100323.50
2023-01-20T23:13:00.443Z,100295.16
2023-01-20T23:17:54.619Z,100316.53
2023-01-20T23:22:48.008Z,100317.28
2023-01-20T23:27:41.561Z,100308.69
2023-01-20T23:32:36.031Z,100302.16
2023-01-20T23:37:30.198Z,100302.34
2023-01-20T23:42:23.797Z,100280.06
2023-01-20T23:47:18.638Z,100280.44
2023-01-20T23:52:12.975Z,100284.97
2023-01-20T23:57:05.074Z,100290.66
